Time;durP1;ratioP1;P1;durP2;ratioP2;P2;SDS_P1;SDS_P2;PMS_P1;PMS_P2;Temp;Humidity;BMP_temperature;BMP_pressure;BME280_temperature;BME280_humidity;BME280_pressure;Samples;Min_cycle;Max_cycle;Signal;HPM_P1;HPM_P2
2021/11/16 00:01:39;;;;;;;;;2.50;2.00;;;;;19.83;41.26;102064.56;4962851;28;51196;-41
2021/11/16 00:04:08;;;;;;;;;2.75;2.75;;;;;19.83;41.30;102052.72;4961633;28;51167;-45
2021/11/16 00:06:35;;;;;;;;;3.00;3.00;;;;;19.83;41.31;102059.06;4960551;28;50970;-44
2021/11/16 00:09:02;;;;;;;;;2.00;2.00;;;;;19.81;41.45;102047.41;4957192;28;51410;-44
2021/11/16 00:11:29;;;;;;;;;0.75;0.75;;;;;19.82;41.37;102056.50;4956150;28;51053;-43
2021/11/16 00:13:55;;;;;;;;;3.25;2.50;;;;;19.81;41.07;102054.81;4960928;28;51114;-42
2021/11/16 00:16:20;;;;;;;;;0.00;0.00;;;;;19.79;41.34;102057.72;4963888;28;51846;-44
2021/11/16 00:18:50;;;;;;;;;2.50;2.50;;;;;19.80;41.15;102050.31;4965353;28;51105;-42
2021/11/16 00:21:18;;;;;;;;;2.25;2.25;;;;;19.79;41.26;102043.97;4966017;28;51146;-43
2021/11/16 00:23:46;;;;;;;;;2.25;1.00;;;;;19.79;41.21;102037.63;4974299;28;51533;-43
2021/11/16 00:26:13;;;;;;;;;1.50;1.50;;;;;19.78;41.13;102038.66;4971320;28;52286;-44
2021/11/16 00:28:38;;;;;;;;;2.00;1.00;;;;;19.78;41.45;102045.00;4965399;28;51176;-41
2021/11/16 00:31:04;;;;;;;;;1.00;1.00;;;;;19.78;41.07;102041.41;4964677;28;51361;-41
2021/11/16 00:33:31;;;;;;;;;2.00;2.00;;;;;19.77;41.41;102035.06;4961984;28;50959;-43
2021/11/16 00:35:57;;;;;;;;;2.00;2.00;;;;;19.76;41.17;102027.88;4970729;28;52223;-44
2021/11/16 00:38:26;;;;;;;;;2.25;1.75;;;;;19.76;41.07;102027.88;4960515;28;51145;-43
2021/11/16 00:40:52;;;;;;;;;1.75;1.75;;;;;19.76;41.20;102018.75;4968449;28;51152;-44
2021/11/16 00:43:17;;;;;;;;;1.00;1.00;;;;;19.75;41.18;102017.06;4962993;28;51232;-42
2021/11/16 00:45:45;;;;;;;;;1.75;1.75;;;;;19.75;41.12;102011.56;4954450;28;51144;-43
2021/11/16 00:48:11;;;;;;;;;1.25;1.25;;;;;19.75;41.18;102006.06;4964214;28;51243;-44
2021/11/16 00:50:40;;;;;;;;;2.00;1.50;;;;;19.74;41.52;102012.59;4954524;28;51154;-43
2021/11/16 00:53:07;;;;;;;;;1.00;1.00;;;;;19.73;41.24;101999.91;4955058;28;51197;-42
2021/11/16 00:55:33;;;;;;;;;2.75;2.00;;;;;19.72;41.40;102012.81;4954441;28;52150;-42
2021/11/16 00:57:58;;;;;;;;;2.75;1.25;;;;;19.72;41.13;101999.06;4965463;28;50983;-43
2021/11/16 01:00:24;;;;;;;;;1.00;1.00;;;;;19.72;41.04;102003.69;4956626;28;51546;-45
2021/11/16 01:02:49;;;;;;;;;2.25;2.00;;;;;19.71;41.18;101989.09;4954657;28;51123;-45
2021/11/16 01:05:15;;;;;;;;;1.75;1.75;;;;;19.70;41.05;101990.16;4954402;28;50959;-42
2021/11/16 01:07:42;;;;;;;;;1.00;1.00;;;;;19.71;41.10;101991.00;4968869;28;51147;-43
2021/11/16 01:10:11;;;;;;;;;2.00;2.00;;;;;19.70;41.28;101992.03;4954953;28;51067;-43
2021/11/16 01:12:37;;;;;;;;;1.50;0.00;;;;;19.70;41.37;101992.03;4959120;28;51208;-42
2021/11/16 01:15:05;;;;;;;;;2.00;2.00;;;;;19.69;41.36;101993.06;4972840;28;51263;-43
2021/11/16 01:17:31;;;;;;;;;3.00;3.00;;;;;19.68;41.25;101992.22;4965876;28;51180;-45
2021/11/16 01:19:56;;;;;;;;;3.50;2.00;;;;;19.68;41.37;101988.59;4973034;28;50962;-42
2021/11/16 01:22:22;;;;;;;;;0.50;0.50;;;;;19.67;41.32;101990.50;4971992;28;51283;-42
2021/11/16 01:24:47;;;;;;;;;2.50;2.25;;;;;19.67;41.25;101981.41;4970651;28;52022;-43
2021/11/16 01:27:18;;;;;;;;;3.75;2.00;;;;;19.67;41.48;101986.91;4969357;28;51163;-43
2021/11/16 01:29:45;;;;;;;;;0.25;0.25;;;;;19.66;41.03;101985.19;4960856;28;51432;-43
2021/11/16 01:32:25;;;;;;;;;4.00;2.00;;;;;19.66;41.11;101990.69;4959428;28;51022;-45
2021/11/16 01:34:51;;;;;;;;;1.50;1.50;;;;;19.65;41.30;101991.75;4961584;28;51981;-42
2021/11/16 01:37:16;;;;;;;;;1.00;1.00;;;;;19.64;41.43;101990.91;4967548;28;51630;-43
2021/11/16 01:39:42;;;;;;;;;1.75;1.75;;;;;19.64;41.25;101990.03;4954287;28;51053;-45
2021/11/16 01:42:08;;;;;;;;;2.50;2.00;;;;;19.64;41.21;101990.91;4954180;28;51321;-43
2021/11/16 01:44:33;;;;;;;;;1.00;1.00;;;;;19.64;41.41;101987.28;4960867;28;50912;-45
2021/11/16 01:46:58;;;;;;;;;2.75;2.00;;;;;19.63;41.24;101994.69;4958312;28;51107;-44
2021/11/16 01:49:24;;;;;;;;;2.00;1.00;;;;;19.63;41.21;101988.34;4968959;28;51175;-45
2021/11/16 01:51:49;;;;;;;;;2.00;2.00;;;;;19.62;41.58;101992.13;4954161;28;50978;-41
2021/11/16 01:54:15;;;;;;;;;2.25;1.50;;;;;19.62;41.35;101992.97;4955308;28;51970;-42
2021/11/16 01:56:43;;;;;;;;;0.75;0.75;;;;;19.62;41.52;101995.72;4958987;28;51209;-45
2021/11/16 01:59:10;;;;;;;;;1.25;1.25;;;;;19.62;41.42;101994.88;4966804;28;51193;-42
2021/11/16 02:01:37;;;;;;;;;2.50;1.00;;;;;19.62;40.97;101994.88;4961770;28;51289;-41
2021/11/16 02:04:04;;;;;;;;;0.25;0.25;;;;;19.60;41.42;101992.31;4962729;28;51089;-42
2021/11/16 02:06:37;;;;;;;;;0.75;0.75;;;;;19.60;41.46;101986.81;4961359;28;51303;-42
2021/11/16 02:09:07;;;;;;;;;3.00;1.25;;;;;19.59;41.27;101976.84;4969436;28;51156;-44
2021/11/16 02:11:32;;;;;;;;;2.00;1.00;;;;;19.60;41.27;101989.56;4954125;28;51076;-45
2021/11/16 02:13:58;;;;;;;;;1.00;1.00;;;;;19.58;41.15;101987.00;4968180;28;51959;-42
2021/11/16 02:16:24;;;;;;;;;2.75;1.00;;;;;19.58;41.06;101986.13;4960653;28;51272;-44
2021/11/16 02:18:50;;;;;;;;;2.00;0.75;;;;;19.58;41.58;101977.88;4966177;28;51397;-45
2021/11/16 02:21:16;;;;;;;;;2.00;1.00;;;;;19.58;41.32;101980.63;4959553;28;51025;-45
2021/11/16 02:23:43;;;;;;;;;1.75;1.00;;;;;19.57;41.45;101977.03;4954510;28;51805;-43
2021/11/16 02:26:09;;;;;;;;;2.00;1.00;;;;;19.56;41.30;101978.09;4971865;28;51478;-45
2021/11/16 02:28:35;;;;;;;;;1.25;1.25;;;;;19.56;41.50;101969.84;4954670;28;51376;-45
2021/11/16 02:31:02;;;;;;;;;2.50;1.00;;;;;19.56;41.39;101975.34;4960718;28;51753;-43
2021/11/16 02:33:28;;;;;;;;;3.25;2.00;;;;;19.56;41.54;101969.84;4962788;28;51602;-47
2021/11/16 02:35:53;;;;;;;;;3.00;2.00;;;;;19.55;41.45;101976.38;4959635;28;51203;-46
2021/11/16 02:38:19;;;;;;;;;2.75;1.75;;;;;19.55;41.35;101983.75;4966787;28;51142;-44
2021/11/16 02:40:45;;;;;;;;;1.75;0.75;;;;;19.54;41.50;101977.41;4969591;28;51417;-42
2021/11/16 02:43:11;;;;;;;;;0.50;0.50;;;;;19.53;41.31;101975.69;4965448;28;51587;-46
2021/11/16 02:45:37;;;;;;;;;1.00;1.00;;;;;19.53;41.38;101981.19;4962731;28;51100;-44
2021/11/16 02:48:12;;;;;;;;;1.00;1.00;;;;;19.53;41.30;101972.94;4964227;28;51110;-44
2021/11/16 02:50:42;;;;;;;;;1.50;1.50;;;;;19.53;41.23;101981.19;4961893;28;51159;-42
2021/11/16 02:53:07;;;;;;;;;1.50;1.50;;;;;19.53;41.45;101978.44;4970032;28;52088;-41
2021/11/16 02:55:33;;;;;;;;;1.75;1.50;;;;;19.52;41.30;101970.38;4970592;28;51311;-43
2021/11/16 02:57:58;;;;;;;;;1.75;0.25;;;;;19.52;41.48;101973.13;4970602;28;51099;-42
2021/11/16 03:00:23;;;;;;;;;1.25;1.00;;;;;19.52;41.43;101967.63;4961778;28;50983;-43
2021/11/16 03:02:49;;;;;;;;;2.50;2.25;;;;;19.52;41.45;101971.25;4957884;28;52160;-41
2021/11/16 03:05:16;;;;;;;;;1.00;1.00;;;;;19.51;41.51;101969.53;4966862;28;51145;-43
2021/11/16 03:07:56;;;;;;;;;2.00;2.00;;;;;19.51;41.25;101969.53;4966260;28;51300;-44
2021/11/16 03:10:26;;;;;;;;;2.25;1.25;;;;;19.50;41.39;101964.22;4956363;28;51396;-44
2021/11/16 03:12:53;;;;;;;;;4.00;2.00;;;;;19.50;41.63;101964.22;4965981;28;51961;-42
2021/11/16 03:15:19;;;;;;;;;0.25;0.25;;;;;19.48;41.09;101961.66;4963175;28;50990;-43
2021/11/16 03:17:47;;;;;;;;;1.25;1.25;;;;;19.50;41.59;101967.84;4956337;28;51065;-44
2021/11/16 03:20:14;;;;;;;;;5.00;2.00;;;;;19.48;41.54;101961.66;4956736;28;50978;-42
2021/11/16 03:22:50;;;;;;;;;2.50;2.00;;;;;19.48;41.41;101960.78;4968569;28;52690;-42
2021/11/16 03:25:18;;;;;;;;;1.75;1.00;;;;;19.47;41.51;101965.44;4959406;28;51143;-43
2021/11/16 03:27:45;;;;;;;;;0.50;0.50;;;;;19.47;41.25;101959.94;4972662;28;51107;-43
2021/11/16 03:30:11;;;;;;;;;1.00;1.00;;;;;19.47;41.47;101967.34;4969526;28;51188;-44
2021/11/16 03:32:37;;;;;;;;;0.25;0.25;;;;;19.46;41.41;101961.00;4961100;28;52736;-44
2021/11/16 03:35:06;;;;;;;;;4.25;1.00;;;;;19.46;41.29;101963.75;4959371;28;51176;-42
2021/11/16 03:37:40;;;;;;;;;0.25;0.25;;;;;19.46;41.24;101957.38;4973996;28;50988;-42
2021/11/16 03:40:06;;;;;;;;;1.00;0.75;;;;;19.46;41.32;101960.13;4973684;28;51495;-43
2021/11/16 03:42:35;;;;;;;;;1.75;1.00;;;;;19.46;41.45;101961.00;4962161;28;51096;-43
2021/11/16 03:45:01;;;;;;;;;1.25;1.25;;;;;19.45;41.55;101955.69;4959662;28;51363;-44
2021/11/16 03:47:26;;;;;;;;;0.25;0.25;;;;;19.45;41.99;101967.53;4958970;28;50915;-41
2021/11/16 03:49:51;;;;;;;;;2.25;1.00;;;;;19.45;41.47;101963.94;4961197;28;51269;-42
2021/11/16 03:52:21;;;;;;;;;0.25;0.25;;;;;19.44;41.25;101968.56;4964486;28;51165;-43
2021/11/16 03:54:47;;;;;;;;;0.75;0.50;;;;;19.44;41.39;101964.97;4959030;28;51484;-42
2021/11/16 03:57:12;;;;;;;;;0.25;0.25;;;;;19.44;41.55;101965.81;4971025;28;51414;-45
2021/11/16 03:59:38;;;;;;;;;1.00;1.00;;;;;19.44;41.25;101959.47;4963278;28;51455;-43
2021/11/16 04:02:03;;;;;;;;;0.00;0.00;;;;;19.44;41.65;101967.72;4956319;28;51981;-43
2021/11/16 04:04:29;;;;;;;;;1.00;1.00;;;;;19.43;41.44;101963.28;4971649;28;51026;-41
2021/11/16 04:06:54;;;;;;;;;0.75;0.75;;;;;19.42;41.67;101967.91;4965597;28;51101;-41
2021/11/16 04:09:20;;;;;;;;;1.00;1.00;;;;;19.42;41.56;101956.94;4960344;28;51205;-43
2021/11/16 04:11:45;;;;;;;;;0.00;0.00;;;;;19.42;41.55;101964.31;4963414;28;51835;-48
2021/11/16 04:14:11;;;;;;;;;1.25;1.25;;;;;19.41;41.33;101960.72;4963045;27;51118;-44
2021/11/16 04:16:37;;;;;;;;;2.00;1.75;;;;;19.41;41.37;101960.72;4966582;28;51007;-43
2021/11/16 04:19:03;;;;;;;;;1.00;1.00;;;;;19.41;41.58;101966.22;4975423;28;51164;-44
2021/11/16 04:21:28;;;;;;;;;0.25;0.25;;;;;19.41;41.40;101968.97;4956956;28;52774;-44
2021/11/16 04:23:54;;;;;;;;;1.50;1.50;;;;;19.41;41.30;101965.38;4956516;28;51092;-44
2021/11/16 04:26:19;;;;;;;;;0.75;0.75;;;;;19.41;41.68;101962.63;4977313;28;51107;-48
2021/11/16 04:28:45;;;;;;;;;0.75;0.75;;;;;19.40;41.26;101964.50;4958191;28;52053;-41
2021/11/16 04:31:10;;;;;;;;;0.50;0.50;;;;;19.41;41.27;101962.63;4955927;28;51107;-44
2021/11/16 04:33:38;;;;;;;;;1.25;1.25;;;;;19.39;41.39;101962.81;4968896;28;51068;-43
2021/11/16 04:36:04;;;;;;;;;1.75;1.00;;;;;19.39;41.36;101960.06;4958229;28;50992;-43
2021/11/16 04:38:29;;;;;;;;;0.00;0.00;;;;;19.38;41.27;101950.06;4961280;28;51446;-46
2021/11/16 04:40:57;;;;;;;;;2.00;1.00;;;;;19.38;41.33;101955.56;4955152;28;52098;-42
2021/11/16 04:43:27;;;;;;;;;1.50;1.50;;;;;19.38;41.66;101966.56;4967750;28;51484;-43
2021/11/16 04:45:57;;;;;;;;;1.50;1.00;;;;;19.39;41.27;101962.81;4958999;28;51180;-45
2021/11/16 04:54:10;;;;;;;;;1.75;1.00;;;;;19.38;41.33;101965.72;4963349;28;51305;-42
2021/11/16 05:04:39;;;;;;;;;1.50;1.00;;;;;19.35;41.54;101972.44;4955650;28;51014;-43
2021/11/16 05:07:12;;;;;;;;;2.00;0.50;;;;;19.35;41.29;101975.19;4955761;28;50897;-48
2021/11/16 05:09:38;;;;;;;;;3.00;1.00;;;;;19.35;41.59;101966.09;4966530;28;51226;-45
2021/11/16 05:12:03;;;;;;;;;3.00;1.25;;;;;19.34;41.62;101973.50;4955248;28;51124;-46
2021/11/16 05:14:29;;;;;;;;;1.00;1.00;;;;;19.34;41.49;101976.25;4971584;28;51167;-43
2021/11/16 05:16:54;;;;;;;;;1.00;1.00;;;;;19.35;41.55;101960.59;4960423;28;51289;-43
2021/11/16 05:19:20;;;;;;;;;0.00;0.00;;;;;19.34;41.53;101962.50;4957473;28;51133;-42
2021/11/16 05:21:45;;;;;;;;;3.75;2.50;;;;;19.33;41.22;101958.91;4965770;28;52671;-46
2021/11/16 05:24:11;;;;;;;;;1.00;1.00;;;;;19.32;41.34;101962.69;4965167;28;51072;-45
2021/11/16 05:26:36;;;;;;;;;4.00;2.00;;;;;19.32;41.36;101968.19;4972178;28;51204;-44
2021/11/16 05:29:02;;;;;;;;;4.00;1.25;;;;;19.33;41.39;101969.03;4962160;28;51201;-42
2021/11/16 05:31:28;;;;;;;;;2.00;0.50;;;;;19.33;41.48;101969.03;4962020;28;51412;-46
2021/11/16 05:33:54;;;;;;;;;1.00;1.00;;;;;19.32;41.58;101981.94;4955042;28;51220;-45
2021/11/16 05:36:21;;;;;;;;;2.00;1.00;;;;;19.32;41.42;101972.84;4959971;28;51208;-44
2021/11/16 05:38:47;;;;;;;;;2.75;1.25;;;;;19.32;41.51;101984.66;4956776;28;51186;-47
2021/11/16 05:41:14;;;;;;;;;4.00;2.00;;;;;19.32;41.40;101981.94;4968691;28;52476;-45
2021/11/16 05:43:42;;;;;;;;;1.00;1.00;;;;;19.31;41.41;101984.88;4958291;28;51125;-44
2021/11/16 05:46:09;;;;;;;;;1.00;1.00;;;;;19.31;41.60;101980.22;4955179;28;51255;-46
2021/11/16 05:48:37;;;;;;;;;1.50;1.50;;;;;19.31;41.42;101979.38;4954286;28;51343;-45
2021/11/16 05:51:02;;;;;;;;;0.75;0.75;;;;;19.30;41.45;101970.28;4957902;28;51743;-45
2021/11/16 05:53:29;;;;;;;;;1.25;1.00;;;;;19.31;41.39;101982.13;4967582;28;51155;-47
2021/11/16 05:55:54;;;;;;;;;1.50;1.00;;;;;19.31;41.37;101990.34;4962179;28;51125;-41
2021/11/16 05:58:20;;;;;;;;;2.00;2.00;;;;;19.30;41.58;101999.66;4962345;28;51437;-43
2021/11/16 06:00:46;;;;;;;;;3.25;3.25;;;;;19.29;41.53;101998.78;4957415;28;51092;-45
2021/11/16 06:03:12;;;;;;;;;7.50;6.50;;;;;19.29;41.08;102000.69;4953838;28;51373;-43
2021/11/16 06:05:37;;;;;;;;;5.75;4.25;;;;;19.27;41.23;101991.75;4965233;28;51057;-46
2021/11/16 06:08:04;;;;;;;;;7.75;4.25;;;;;19.28;41.10;101996.22;4968721;28;51092;-45
2021/11/16 06:10:30;;;;;;;;;7.25;4.75;;;;;19.27;40.84;101995.34;4962052;28;51955;-44
2021/11/16 06:12:55;;;;;;;;;11.50;6.25;;;;;19.26;40.96;102001.03;4969746;28;51204;-43
2021/11/16 06:15:21;;;;;;;;;7.25;6.50;;;;;19.27;40.62;101998.09;4972316;28;51353;-44
2021/11/16 06:17:46;;;;;;;;;8.25;5.50;;;;;19.25;40.55;101985.59;4960146;28;51210;-44
2021/11/16 06:20:14;;;;;;;;;8.00;7.25;;;;;19.25;40.45;101989.19;4956334;28;52614;-43
2021/11/16 06:22:41;;;;;;;;;6.25;4.25;;;;;19.24;40.55;101986.63;4957227;28;51083;-42
2021/11/16 06:25:07;;;;;;;;;5.25;4.25;;;;;19.23;40.38;101988.53;4952700;28;51248;-42
2021/11/16 06:27:32;;;;;;;;;7.25;4.00;;;;;19.23;40.66;101987.69;4974135;28;51225;-41
2021/11/16 06:29:58;;;;;;;;;8.25;6.50;;;;;19.23;40.50;101995.94;4959912;28;51173;-42
2021/11/16 06:32:23;;;;;;;;;7.50;5.75;;;;;19.23;40.53;101990.44;4954221;28;50978;-44
2021/11/16 06:34:48;;;;;;;;;4.50;3.25;;;;;19.24;40.47;101995.72;4965517;28;51038;-43
2021/11/16 06:37:14;;;;;;;;;3.00;3.00;;;;;19.24;40.61;102001.22;4972035;28;51375;-46
2021/11/16 06:39:39;;;;;;;;;3.75;3.75;;;;;19.25;40.72;102002.94;4956102;28;52163;-47
2021/11/16 06:42:05;;;;;;;;;5.00;3.00;;;;;19.26;40.89;101995.53;4961535;28;51089;-44
2021/11/16 06:44:31;;;;;;;;;3.00;2.00;;;;;19.26;40.61;101996.41;4965096;28;51342;-41
2021/11/16 06:46:56;;;;;;;;;2.00;1.50;;;;;19.26;40.83;101987.31;4955576;28;51246;-42
2021/11/16 06:49:22;;;;;;;;;4.00;4.00;;;;;19.28;40.74;101998.97;4961688;28;51251;-44
2021/11/16 06:51:51;;;;;;;;;3.00;1.25;;;;;19.28;40.73;101997.09;4958958;28;51261;-43
2021/11/16 06:54:19;;;;;;;;;3.00;3.00;;;;;19.29;40.59;102000.69;4963766;28;51119;-42
2021/11/16 06:56:48;;;;;;;;;1.25;1.25;;;;;19.29;40.69;101995.19;4961160;28;51135;-46
2021/11/16 06:59:15;;;;;;;;;3.75;2.50;;;;;19.29;40.72;101995.19;4977756;28;52881;-41
2021/11/16 07:01:40;;;;;;;;;4.00;2.50;;;;;19.30;40.91;101997.75;4964343;28;51423;-42
2021/11/16 07:04:09;;;;;;;;;6.00;4.50;;;;;19.31;40.80;101993.09;4957348;28;50975;-42
2021/11/16 07:06:41;;;;;;;;;3.25;2.00;;;;;19.31;40.97;102004.94;4973361;28;50951;-42
2021/11/16 07:09:10;;;;;;;;;3.00;2.25;;;;;19.32;40.84;102005.81;4964819;28;51813;-45
2021/11/16 07:11:42;;;;;;;;;3.25;2.50;;;;;19.32;41.05;102003.06;4967963;28;51184;-41
2021/11/16 07:14:10;;;;;;;;;4.75;2.00;;;;;19.32;40.88;102003.06;4968536;28;51137;-44
2021/11/16 07:16:41;;;;;;;;;3.75;2.00;;;;;19.33;40.88;102016.59;4960678;28;51108;-45
2021/11/16 07:19:09;;;;;;;;;1.75;1.50;;;;;19.33;40.92;102013.00;4959745;28;51199;-45
2021/11/16 07:22:05;;;;;;;;;1.50;1.25;;;;;19.34;40.78;102009.22;4961759;28;51034;-44
2021/11/16 07:24:31;;;;;;;;;2.00;2.00;;;;;19.32;40.94;102012.16;4961880;28;51179;-43
2021/11/16 07:27:04;;;;;;;;;2.75;2.75;;;;;19.36;40.82;102014.50;4979268;28;51243;-42
2021/11/16 07:29:36;;;;;;;;;5.75;3.75;;;;;19.37;41.48;102013.47;4959016;28;52743;-45
2021/11/16 07:32:03;;;;;;;;;21.50;14.75;;;;;19.43;41.76;102010.00;4960723;28;51765;-45
2021/11/16 07:34:32;;;;;;;;;24.00;13.00;;;;;19.48;41.93;102013.84;4954696;28;51308;-45
2021/11/16 07:37:01;;;;;;;;;16.50;12.25;;;;;19.53;41.58;102008.66;4965643;28;51236;-42
2021/11/16 07:39:29;;;;;;;;;14.00;9.75;;;;;19.57;41.62;102010.03;4960453;28;51896;-47
2021/11/16 07:42:07;;;;;;;;;12.50;6.50;;;;;19.59;41.66;102024.47;4958050;28;51476;-47
2021/11/16 07:44:33;;;;;;;;;10.50;6.75;;;;;19.60;41.46;102012.41;4962651;28;53010;-47
2021/11/16 07:46:58;;;;;;;;;11.00;6.50;;;;;19.61;41.70;102021.50;4962723;28;51385;-45
2021/11/16 07:49:25;;;;;;;;;7.00;5.00;;;;;19.63;41.26;102018.56;4959386;28;51785;-45
2021/11/16 07:51:52;;;;;;;;;14.00;6.00;;;;;19.63;41.87;102015.81;4955704;28;51404;-44
2021/11/16 07:54:30;;;;;;;;;14.00;9.25;;;;;19.65;41.92;102011.84;4955352;28;51200;-47
2021/11/16 07:57:06;;;;;;;;;12.75;8.50;;;;;19.69;41.92;102013.16;4955687;28;51144;-46
2021/11/16 07:59:33;;;;;;;;;15.75;10.50;;;;;19.72;42.29;102014.69;4955042;28;51952;-45
2021/11/16 08:02:02;;;;;;;;;13.00;8.25;;;;;19.74;42.29;102002.47;4955447;28;51119;-42
2021/11/16 08:04:40;;;;;;;;;12.75;9.75;;;;;19.77;42.33;101995.72;4955057;28;51226;-47
2021/11/16 08:12:29;;;;;;;;;12.50;8.75;;;;;19.83;41.90;102006.81;4954958;28;51306;-45
2021/11/16 08:15:11;;;;;;;;;13.00;10.00;;;;;19.85;42.17;102006.63;4954829;28;51145;-45
2021/11/16 08:17:38;;;;;;;;;11.25;9.00;;;;;19.84;41.89;102021.44;4969840;28;51200;-46
2021/11/16 08:20:08;;;;;;;;;16.25;8.75;;;;;19.85;41.92;102023.97;4954773;28;51017;-44
2021/11/16 08:22:35;;;;;;;;;11.75;7.75;;;;;19.86;41.96;102025.69;4954718;28;51337;-44
2021/11/16 08:25:01;;;;;;;;;14.00;7.50;;;;;19.87;41.56;102023.78;4954994;28;51175;-44
2021/11/16 08:27:35;;;;;;;;;7.00;5.75;;;;;19.86;41.68;102014.69;4981227;28;51418;-46
2021/11/16 08:30:13;;;;;;;;;9.75;5.25;;;;;19.85;41.77;102012.13;4993624;28;51841;-46
2021/11/16 08:32:41;;;;;;;;;10.00;6.50;;;;;19.85;41.69;102012.97;4994203;28;51074;-46
2021/11/16 08:35:17;;;;;;;;;8.00;4.75;;;;;19.87;41.47;102010.88;4994299;28;51068;-45
2021/11/16 08:37:44;;;;;;;;;12.00;7.25;;;;;19.86;41.64;102009.19;4993780;28;51309;-49
2021/11/16 08:40:16;;;;;;;;;10.00;8.25;;;;;19.85;41.66;102007.47;4993957;28;52616;-45
2021/11/16 08:42:51;;;;;;;;;15.25;8.00;;;;;19.87;41.34;102001.78;4982566;28;51310;-46
2021/11/16 08:45:20;;;;;;;;;10.50;9.00;;;;;19.88;41.47;102006.25;4967163;28;51559;-48
2021/11/16 08:48:05;;;;;;;;;162.50;142.75;;;;;19.91;41.39;101997.63;4969055;28;51105;-41
2021/11/16 08:50:34;;;;;;;;;113.00;103.50;;;;;20.05;41.31;101982.16;4952829;28;52064;-44
2021/11/16 08:53:11;;;;;;;;;88.25;80.50;;;;;20.27;41.09;101991.31;4974509;28;51117;-47
2021/11/16 08:55:39;;;;;;;;;71.50;56.25;;;;;20.52;40.53;101989.91;4971170;28;51432;-44
2021/11/16 08:58:08;;;;;;;;;61.50;48.75;;;;;20.74;40.08;101988.06;4959748;28;51205;-46
2021/11/16 09:00:41;;;;;;;;;56.50;46.00;;;;;20.99;40.21;101988.50;4962655;28;51978;-44
2021/11/16 09:03:10;;;;;;;;;39.00;34.00;;;;;21.22;39.25;101991.88;4958559;28;51714;-47
2021/11/16 09:05:43;;;;;;;;;31.25;29.75;;;;;21.45;39.00;101988.03;4952088;28;51233;-48
2021/11/16 09:08:25;;;;;;;;;25.75;24.75;;;;;21.67;39.10;101992.41;4975349;28;51238;-45
2021/11/16 09:10:57;;;;;;;;;17.00;16.25;;;;;21.92;38.54;101990.03;4969743;28;52718;-46
2021/11/16 09:13:29;;;;;;;;;12.25;11.00;;;;;22.18;37.97;101992.94;4964407;28;51439;-42
2021/11/16 09:15:56;;;;;;;;;9.25;9.00;;;;;22.42;37.31;101991.53;4959537;28;51101;-47
2021/11/16 09:18:28;;;;;;;;;8.50;8.00;;;;;22.66;37.20;101989.25;4963950;28;51295;-43
2021/11/16 09:21:04;;;;;;;;;7.50;7.50;;;;;22.89;36.56;101980.59;4961286;28;51863;-41
2021/11/16 09:23:38;;;;;;;;;7.50;5.25;;;;;23.10;36.14;101982.31;4969745;28;51122;-45
2021/11/16 09:26:15;;;;;;;;;7.00;6.00;;;;;23.29;35.72;101970.41;4963523;28;51393;-48
2021/11/16 09:28:51;;;;;;;;;8.75;5.75;;;;;23.50;35.42;101972.94;4978517;28;51092;-44
2021/11/16 09:31:22;;;;;;;;;4.00;4.00;;;;;23.68;35.23;101963.16;4971361;28;51925;-46
2021/11/16 09:33:49;;;;;;;;;5.00;4.00;;;;;23.86;34.79;101977.09;4969937;28;51347;-44
2021/11/16 09:36:41;;;;;;;;;7.00;3.00;;;;;24.03;34.66;101964.50;4988041;28;51150;-44
2021/11/16 09:39:16;;;;;;;;;5.50;4.75;;;;;24.21;34.24;101968.47;4960452;28;51142;-44
2021/11/16 09:41:48;;;;;;;;;5.75;4.50;;;;;24.35;33.83;101970.97;4953157;28;51238;-48
2021/11/16 09:44:15;;;;;;;;;18.75;9.50;;;;;24.50;34.32;101964.31;4955402;28;51241;-47
2021/11/16 09:46:50;;;;;;;;;12.75;7.75;;;;;24.58;34.77;101962.09;4963257;28;51101;-45
2021/11/16 09:49:17;;;;;;;;;10.75;7.00;;;;;24.67;34.72;101959.91;4960989;28;51401;-45
2021/11/16 09:51:54;;;;;;;;;9.25;8.25;;;;;24.74;34.52;101953.25;4960702;28;51962;-44
2021/11/16 09:54:20;;;;;;;;;7.25;5.00;;;;;24.83;34.46;101955.75;4962527;28;51301;-44
2021/11/16 09:56:46;;;;;;;;;7.75;5.00;;;;;24.93;34.37;101956.09;5006562;28;51196;-45
2021/11/16 09:59:24;;;;;;;;;8.00;5.50;;;;;25.01;34.20;101966.88;4974825;28;51496;-44
2021/11/16 10:01:49;;;;;;;;;9.25;6.25;;;;;25.11;34.24;101970.03;4955039;28;51686;-46
2021/11/16 10:04:29;;;;;;;;;9.50;6.25;;;;;25.20;33.87;101965.91;4963883;28;51062;-44
2021/11/16 10:06:54;;;;;;;;;6.00;5.00;;;;;25.29;33.78;101963.69;4958291;28;51085;-48
2021/11/16 10:09:20;;;;;;;;;4.75;3.00;;;;;25.39;33.74;101966.81;4960936;28;51243;-47
2021/11/16 10:11:51;;;;;;;;;6.25;5.00;;;;;25.48;33.53;101970.13;4963932;28;51706;-47
2021/11/16 10:14:19;;;;;;;;;4.25;3.00;;;;;25.54;33.68;101964.53;4970123;28;51397;-48
2021/11/16 10:16:46;;;;;;;;;5.00;4.50;;;;;25.62;33.21;101960.59;4968645;28;51169;-47
2021/11/16 10:19:12;;;;;;;;;5.00;3.00;;;;;25.69;33.03;101975.25;4979659;28;51887;-45
2021/11/16 10:21:38;;;;;;;;;3.50;3.25;;;;;25.78;32.79;101979.44;4959918;28;51222;-48
2021/11/16 10:24:31;;;;;;;;;4.00;3.00;;;;;25.86;32.85;101968.03;4967762;28;51431;-46
2021/11/16 10:27:30;;;;;;;;;26.50;14.50;;;;;25.96;32.48;101966.66;4971165;28;51631;-46
2021/11/16 10:30:11;;;;;;;;;27.50;17.50;;;;;26.04;32.37;101966.31;4961153;28;51172;-48
2021/11/16 10:32:38;;;;;;;;;27.50;14.75;;;;;26.11;31.83;101967.09;4959843;28;51792;-46
2021/11/16 10:35:07;;;;;;;;;22.25;10.25;;;;;26.18;32.25;101965.06;4959470;28;51007;-44
2021/11/16 10:37:55;;;;;;;;;13.00;8.00;;;;;26.26;31.99;101959.22;4970900;28;51083;-44
2021/11/16 10:40:23;;;;;;;;;20.25;10.75;;;;;26.32;31.89;101961.03;4967427;28;51190;-48
2021/11/16 10:42:53;;;;;;;;;11.75;6.00;;;;;26.40;31.20;101955.19;4975766;28;52212;-44
2021/11/16 10:45:21;;;;;;;;;9.00;7.00;;;;;26.47;31.38;101960.66;4979811;28;51358;-44
2021/11/16 10:47:47;;;;;;;;;12.75;9.25;;;;;26.64;31.33;101964.44;4971546;28;51137;-43
2021/11/16 10:50:17;;;;;;;;;16.50;7.75;;;;;26.94;30.87;101964.38;4963647;28;51295;-43
2021/11/16 10:52:43;;;;;;;;;12.25;9.75;;;;;27.26;30.76;101958.53;4970124;28;52025;-46
2021/11/16 10:55:10;;;;;;;;;12.50;9.50;;;;;27.58;30.52;101962.63;4958184;28;51408;-47
2021/11/16 10:57:55;;;;;;;;;13.75;8.25;;;;;27.91;29.90;101966.72;4966237;28;51257;-46
2021/11/16 11:00:44;;;;;;;;;8.00;5.75;;;;;28.23;29.67;101957.91;4958696;28;51148;-48
2021/11/16 11:03:15;;;;;;;;;9.75;6.25;;;;;28.47;29.91;101951.19;4959818;28;52715;-45
2021/11/16 11:05:43;;;;;;;;;12.75;7.00;;;;;28.70;29.83;101958.56;4965398;28;50989;-44
2021/11/16 11:08:08;;;;;;;;;11.25;6.75;;;;;28.91;29.63;101957.84;4964584;28;51275;-42
2021/11/16 11:10:46;;;;;;;;;7.75;4.75;;;;;29.14;28.80;101950.41;4965366;28;51333;-45
2021/11/16 11:13:20;;;;;;;;;8.75;6.75;;;;;29.33;28.74;101946.25;4971720;28;52508;-47
2021/11/16 11:15:46;;;;;;;;;6.25;4.00;;;;;29.49;28.55;101944.56;4960992;28;51440;-45
2021/11/16 11:18:12;;;;;;;;;5.25;5.00;;;;;29.64;28.50;101933.63;4971304;28;51202;-45
2021/11/16 11:20:45;;;;;;;;;10.50;6.25;;;;;29.79;28.08;101941.34;4975242;28;51137;-43
2021/11/16 11:23:31;;;;;;;;;7.75;3.25;;;;;29.88;28.33;101935.03;4960772;28;51870;-47
2021/11/16 11:29:18;;;;;;;;;7.75;5.75;;;;;29.68;28.81;101917.19;4961588;28;51354;-44
2021/11/16 11:31:47;;;;;;;;;5.75;5.00;;;;;29.54;28.84;101917.56;4964807;28;51259;-43
2021/11/16 11:34:14;;;;;;;;;8.75;6.00;;;;;29.45;28.92;101921.88;4970306;28;52035;-44
2021/11/16 11:36:40;;;;;;;;;9.25;5.50;;;;;29.38;29.18;101910.03;4955611;28;51437;-48
2021/11/16 11:39:19;;;;;;;;;6.75;4.00;;;;;29.32;29.17;101909.13;4958249;28;51244;-46
2021/11/16 11:41:54;;;;;;;;;6.00;5.00;;;;;29.26;28.90;101910.16;4955949;28;51817;-42
2021/11/16 11:44:20;;;;;;;;;5.00;5.00;;;;;29.20;28.97;101905.59;4964769;28;51171;-43
2021/11/16 11:46:59;;;;;;;;;7.00;6.50;;;;;29.15;29.52;101901.88;4954172;28;51409;-46
2021/11/16 11:49:27;;;;;;;;;5.75;4.00;;;;;29.12;29.13;101900.47;4961772;28;51361;-47
2021/11/16 11:51:55;;;;;;;;;7.00;4.75;;;;;29.09;28.85;101898.19;4961711;28;51307;-44